Time;durP1;ratioP1;P1;durP2;ratioP2;P2;SDS_P1;SDS_P2;PMS_P1;PMS_P2;Temp;Humidity;BMP_temperature;BMP_pressure;BME280_temperature;BME280_humidity;BME280_pressure;Samples;Min_cycle;Max_cycle;Signal;HPM_P1;HPM_P2
2022/06/16 00:00:29;;;;;;;1.10;1.10;;;;;;;;;;1795054;79;26299;-48
2022/06/16 00:02:56;;;;;;;1.20;1.20;;;;;;;;;;1803022;79;26708;-45
2022/06/16 00:05:25;;;;;;;1.20;1.10;;;;;;;;;;1800972;78;26592;-49
2022/06/16 00:07:52;;;;;;;1.10;1.10;;;;;;;;;;1798979;78;26780;-47
2022/06/16 00:10:20;;;;;;;1.10;1.10;;;;;;;;;;1787050;78;26310;-48
2022/06/16 00:12:48;;;;;;;1.10;1.10;;;;;;;;;;1792430;79;26672;-45
2022/06/16 00:15:17;;;;;;;1.05;1.05;;;;;;;;;;1800663;78;26378;-47
2022/06/16 00:17:44;;;;;;;1.07;1.07;;;;;;;;;;1803951;78;27340;-46
2022/06/16 00:20:12;;;;;;;1.02;1.02;;;;;;;;;;1803588;79;26758;-45
2022/06/16 00:22:39;;;;;;;1.10;1.10;;;;;;;;;;1811028;78;26280;-45
2022/06/16 00:25:07;;;;;;;1.50;1.00;;;;;;;;;;1797097;78;26696;-46
2022/06/16 00:27:35;;;;;;;1.10;1.10;;;;;;;;;;1793507;78;26737;-45
2022/06/16 00:30:03;;;;;;;1.00;1.00;;;;;;;;;;1798599;79;26278;-45
2022/06/16 00:32:30;;;;;;;1.20;1.20;;;;;;;;;;1805656;78;26758;-50
2022/06/16 00:34:58;;;;;;;1.30;1.20;;;;;;;;;;1811007;78;26729;-46
2022/06/16 00:37:25;;;;;;;1.00;1.00;;;;;;;;;;1812304;78;26257;-48
2022/06/16 00:39:52;;;;;;;1.00;1.00;;;;;;;;;;1811210;78;26262;-47
2022/06/16 00:42:21;;;;;;;0.95;0.95;;;;;;;;;;1813447;78;26392;-49
2022/06/16 00:44:52;;;;;;;0.95;0.95;;;;;;;;;;1842248;78;26315;-49
2022/06/16 00:47:20;;;;;;;1.07;1.07;;;;;;;;;;1811613;78;27481;-48
2022/06/16 00:49:49;;;;;;;1.52;1.05;;;;;;;;;;1805424;78;26244;-45
2022/06/16 00:52:21;;;;;;;1.20;1.20;;;;;;;;;;1815155;78;26540;-47
2022/06/16 00:54:55;;;;;;;0.90;0.90;;;;;;;;;;1816936;78;26459;-50
2022/06/16 00:57:24;;;;;;;1.02;1.02;;;;;;;;;;1809922;77;26287;-47
2022/06/16 00:59:52;;;;;;;0.90;0.90;;;;;;;;;;1809356;78;26271;-47
2022/06/16 01:02:19;;;;;;;1.00;1.00;;;;;;;;;;1815892;78;26673;-47
2022/06/16 01:04:53;;;;;;;1.12;1.10;;;;;;;;;;1816197;79;26272;-47
2022/06/16 01:07:23;;;;;;;1.10;1.10;;;;;;;;;;1817880;77;26379;-46
2022/06/16 01:09:51;;;;;;;1.15;1.05;;;;;;;;;;1824773;77;26795;-46
2022/06/16 01:15:12;;;;;;;0.90;0.90;;;;;;;;;;1820485;77;26280;-48
2022/06/16 01:17:53;;;;;;;0.95;0.95;;;;;;;;;;1809963;78;26286;-51
2022/06/16 01:20:22;;;;;;;1.10;1.10;;;;;;;;;;1816273;78;26330;-48
2022/06/16 01:23:00;;;;;;;0.98;0.98;;;;;;;;;;1814222;78;26677;-47
2022/06/16 01:25:29;;;;;;;2.42;1.00;;;;;;;;;;1815960;79;26709;-48
2022/06/16 01:27:57;;;;;;;1.10;1.10;;;;;;;;;;1809124;78;26699;-45
2022/06/16 01:30:29;;;;;;;0.90;0.90;;;;;;;;;;1802592;78;26274;-46
2022/06/16 01:32:58;;;;;;;1.00;1.00;;;;;;;;;;1801020;78;26359;-49
2022/06/16 01:35:36;;;;;;;1.00;1.00;;;;;;;;;;1814733;77;26264;-47
2022/06/16 01:38:10;;;;;;;0.95;0.95;;;;;;;;;;1818497;78;26315;-46
2022/06/16 01:40:39;;;;;;;1.00;1.00;;;;;;;;;;1809366;78;26296;-47
2022/06/16 01:43:14;;;;;;;0.88;0.88;;;;;;;;;;1795564;78;26318;-43
2022/06/16 01:45:43;;;;;;;1.00;1.00;;;;;;;;;;1811803;78;26316;-47
2022/06/16 01:48:12;;;;;;;1.00;1.00;;;;;;;;;;1813372;78;26277;-47
2022/06/16 01:50:46;;;;;;;0.90;0.90;;;;;;;;;;1809509;79;26295;-44
2022/06/16 01:53:15;;;;;;;0.90;0.90;;;;;;;;;;1817500;78;26279;-46
2022/06/16 01:55:44;;;;;;;1.00;1.00;;;;;;;;;;1811980;78;26694;-47
2022/06/16 01:58:13;;;;;;;0.90;0.90;;;;;;;;;;1805873;78;26223;-47
2022/06/16 02:00:41;;;;;;;0.88;0.88;;;;;;;;;;1808569;78;26276;-46
2022/06/16 02:03:10;;;;;;;0.93;0.93;;;;;;;;;;1816372;78;26712;-52
2022/06/16 02:05:42;;;;;;;0.90;0.90;;;;;;;;;;1812365;78;26657;-46
2022/06/16 02:08:17;;;;;;;0.90;0.90;;;;;;;;;;1815098;77;26307;-46
2022/06/16 02:10:46;;;;;;;0.90;0.90;;;;;;;;;;1815412;77;26292;-48
2022/06/16 02:13:15;;;;;;;0.98;0.98;;;;;;;;;;1805576;77;26209;-46
2022/06/16 02:15:43;;;;;;;1.10;1.10;;;;;;;;;;1810199;78;26320;-47
2022/06/16 02:18:12;;;;;;;0.90;0.90;;;;;;;;;;1821859;78;26351;-45
2022/06/16 02:20:41;;;;;;;0.90;0.90;;;;;;;;;;1806399;78;26303;-47
2022/06/16 02:23:08;;;;;;;0.85;0.85;;;;;;;;;;1815203;78;26276;-49
2022/06/16 02:25:36;;;;;;;1.00;1.00;;;;;;;;;;1815583;79;26379;-48
2022/06/16 02:28:04;;;;;;;1.00;1.00;;;;;;;;;;1813833;78;26299;-45
2022/06/16 02:30:32;;;;;;;1.00;1.00;;;;;;;;;;1810819;79;26713;-46
2022/06/16 02:33:05;;;;;;;0.80;0.80;;;;;;;;;;1807297;77;26414;-46
2022/06/16 02:35:40;;;;;;;1.05;1.05;;;;;;;;;;1813661;78;26322;-48
2022/06/16 02:38:20;;;;;;;1.17;1.17;;;;;;;;;;1803004;78;26266;-50
2022/06/16 02:41:01;;;;;;;1.10;1.10;;;;;;;;;;1810113;78;26782;-45
2022/06/16 02:43:30;;;;;;;1.10;1.10;;;;;;;;;;1803363;77;26298;-51
2022/06/16 02:46:05;;;;;;;0.93;0.93;;;;;;;;;;1799991;78;26399;-45
2022/06/16 02:48:36;;;;;;;1.15;1.15;;;;;;;;;;1809939;78;26343;-48
2022/06/16 02:51:16;;;;;;;0.90;0.90;;;;;;;;;;1813041;78;26663;-47
2022/06/16 02:54:10;;;;;;;1.00;1.00;;;;;;;;;;1813411;78;26771;-44
2022/06/16 02:56:56;;;;;;;0.90;0.90;;;;;;;;;;1808867;78;26236;-48
2022/06/16 02:59:27;;;;;;;0.90;0.90;;;;;;;;;;1801772;78;27504;-47
2022/06/16 03:01:56;;;;;;;1.10;1.10;;;;;;;;;;1811256;78;26252;-50
2022/06/16 03:04:23;;;;;;;1.00;1.00;;;;;;;;;;1810816;78;26216;-46
2022/06/16 03:06:51;;;;;;;1.10;1.10;;;;;;;;;;1808526;78;26360;-48
2022/06/16 03:09:18;;;;;;;1.00;1.00;;;;;;;;;;1780037;78;26281;-46
2022/06/16 03:11:45;;;;;;;1.02;1.00;;;;;;;;;;1812925;77;26257;-51
2022/06/16 03:14:12;;;;;;;1.15;1.15;;;;;;;;;;1811556;78;26330;-46
2022/06/16 03:16:40;;;;;;;0.90;0.90;;;;;;;;;;1812756;78;26291;-47
2022/06/16 03:19:07;;;;;;;0.90;0.90;;;;;;;;;;1812431;79;26296;-46
2022/06/16 03:21:34;;;;;;;1.00;1.00;;;;;;;;;;1813700;78;26256;-49
2022/06/16 03:24:02;;;;;;;0.90;0.90;;;;;;;;;;1811943;78;26272;-47
2022/06/16 03:26:29;;;;;;;1.10;1.10;;;;;;;;;;1808726;78;26331;-48
2022/06/16 03:28:56;;;;;;;1.00;1.00;;;;;;;;;;1815748;78;26399;-51
2022/06/16 03:31:24;;;;;;;1.20;1.20;;;;;;;;;;1814433;78;26372;-48
2022/06/16 03:33:51;;;;;;;1.00;1.00;;;;;;;;;;1807057;78;26300;-51
2022/06/16 03:36:19;;;;;;;1.10;1.10;;;;;;;;;;1804847;78;26323;-51
2022/06/16 03:38:47;;;;;;;0.90;0.90;;;;;;;;;;1816602;78;26303;-48
2022/06/16 03:41:14;;;;;;;1.95;1.10;;;;;;;;;;1817997;78;26299;-50
2022/06/16 03:43:41;;;;;;;0.95;0.95;;;;;;;;;;1810200;78;26393;-46
2022/06/16 03:46:11;;;;;;;1.00;1.00;;;;;;;;;;1817391;79;26282;-46
2022/06/16 03:48:38;;;;;;;0.93;0.93;;;;;;;;;;1805312;78;26346;-48
2022/06/16 03:51:06;;;;;;;0.90;0.90;;;;;;;;;;1801677;79;26349;-49
2022/06/16 03:53:33;;;;;;;0.90;0.90;;;;;;;;;;1815801;79;26232;-48
2022/06/16 03:56:01;;;;;;;1.05;1.05;;;;;;;;;;1815869;78;26363;-46
2022/06/16 03:58:28;;;;;;;1.02;1.02;;;;;;;;;;1811751;77;27637;-48
2022/06/16 04:00:55;;;;;;;0.98;0.98;;;;;;;;;;1817027;78;26272;-46
2022/06/16 04:06:09;;;;;;;1.12;1.12;;;;;;;;;;1812819;78;26307;-45
2022/06/16 04:08:37;;;;;;;1.00;1.00;;;;;;;;;;1810831;78;26317;-49
2022/06/16 04:11:26;;;;;;;1.00;1.00;;;;;;;;;;1804052;78;26209;-48
2022/06/16 04:13:34;;;;;;;1.00;1.00;;;;;;;;;;1799659;78;26383;-45
2022/06/16 04:16:01;;;;;;;1.10;1.10;;;;;;;;;;1816393;78;26304;-50
2022/06/16 04:18:28;;;;;;;1.10;1.10;;;;;;;;;;1812803;78;26256;-49
2022/06/16 04:20:56;;;;;;;1.00;1.00;;;;;;;;;;1813905;79;26346;-47
2022/06/16 04:23:23;;;;;;;1.00;1.00;;;;;;;;;;1815477;77;26288;-49
2022/06/16 04:25:50;;;;;;;1.00;1.00;;;;;;;;;;1813656;78;26318;-46
2022/06/16 04:28:18;;;;;;;1.02;1.02;;;;;;;;;;1813004;77;26731;-47
2022/06/16 04:30:45;;;;;;;1.07;1.07;;;;;;;;;;1815898;79;26818;-48
2022/06/16 04:33:13;;;;;;;0.98;0.98;;;;;;;;;;1806137;79;26651;-50
2022/06/16 04:35:41;;;;;;;1.00;1.00;;;;;;;;;;1815124;78;26304;-49
2022/06/16 04:38:08;;;;;;;1.10;1.10;;;;;;;;;;1812315;77;26773;-48
2022/06/16 04:40:35;;;;;;;1.17;1.00;;;;;;;;;;1803685;78;26283;-50
2022/06/16 04:43:03;;;;;;;1.10;1.10;;;;;;;;;;1795389;78;26366;-48
2022/06/16 04:45:30;;;;;;;1.12;1.12;;;;;;;;;;1815126;78;26276;-48
2022/06/16 04:47:58;;;;;;;1.57;1.10;;;;;;;;;;1813647;78;26257;-47
2022/06/16 04:50:25;;;;;;;1.00;1.00;;;;;;;;;;1800038;78;26272;-46
2022/06/16 04:52:52;;;;;;;1.10;1.10;;;;;;;;;;1812940;78;27196;-46
2022/06/16 04:55:20;;;;;;;1.00;1.00;;;;;;;;;;1805538;78;26679;-49
2022/06/16 04:57:48;;;;;;;1.20;1.07;;;;;;;;;;1802061;78;26785;-48
2022/06/16 05:00:16;;;;;;;1.02;0.98;;;;;;;;;;1815551;78;26775;-46
2022/06/16 05:02:44;;;;;;;1.00;1.00;;;;;;;;;;1804872;78;26364;-45
2022/06/16 05:05:11;;;;;;;0.90;0.90;;;;;;;;;;1804765;78;26716;-49
2022/06/16 05:07:38;;;;;;;1.12;1.00;;;;;;;;;;1798503;78;26382;-48
2022/06/16 05:10:06;;;;;;;1.00;1.00;;;;;;;;;;1801824;79;26226;-47
2022/06/16 05:12:34;;;;;;;3.50;1.12;;;;;;;;;;1807837;77;26672;-49
2022/06/16 05:15:01;;;;;;;1.10;1.10;;;;;;;;;;1801225;78;26413;-49
2022/06/16 05:17:28;;;;;;;2.83;1.05;;;;;;;;;;1814829;78;26291;-50
2022/06/16 05:19:56;;;;;;;1.10;1.10;;;;;;;;;;1800947;78;26567;-50
2022/06/16 05:22:24;;;;;;;1.00;1.00;;;;;;;;;;1793673;78;26214;-51
2022/06/16 05:24:51;;;;;;;1.30;1.20;;;;;;;;;;1801081;79;26300;-50
2022/06/16 05:27:19;;;;;;;1.65;1.10;;;;;;;;;;1797826;79;25719;-46
2022/06/16 05:29:47;;;;;;;1.47;1.10;;;;;;;;;;1799911;79;26292;-50
2022/06/16 05:32:14;;;;;;;1.37;1.20;;;;;;;;;;1796098;78;26356;-47
2022/06/16 05:34:42;;;;;;;1.05;1.00;;;;;;;;;;1803188;78;25975;-46
2022/06/16 05:37:09;;;;;;;1.22;1.20;;;;;;;;;;1798074;78;26288;-51
2022/06/16 05:39:37;;;;;;;2.55;1.40;;;;;;;;;;1807129;79;26304;-47
2022/06/16 05:42:04;;;;;;;1.22;1.12;;;;;;;;;;1803288;78;26269;-47
2022/06/16 05:44:31;;;;;;;1.40;1.40;;;;;;;;;;1797455;78;26287;-47
2022/06/16 05:46:59;;;;;;;1.32;1.22;;;;;;;;;;1802185;78;26284;-49
2022/06/16 05:49:26;;;;;;;1.52;1.10;;;;;;;;;;1801907;79;26821;-52
2022/06/16 05:51:53;;;;;;;5.70;2.00;;;;;;;;;;1801582;78;27167;-46
2022/06/16 05:54:20;;;;;;;2.90;2.12;;;;;;;;;;1806589;78;26268;-48
2022/06/16 05:56:48;;;;;;;2.80;1.80;;;;;;;;;;1803261;78;26271;-46
2022/06/16 05:59:16;;;;;;;4.67;2.10;;;;;;;;;;1794073;78;26350;-46
2022/06/16 06:01:43;;;;;;;1.57;1.47;;;;;;;;;;1792661;78;26417;-48
2022/06/16 06:04:10;;;;;;;3.95;2.00;;;;;;;;;;1799030;79;26304;-45
2022/06/16 06:06:37;;;;;;;5.60;2.50;;;;;;;;;;1795015;78;26364;-48
2022/06/16 06:17:22;;;;;;;4.55;1.90;;;;;;;;;;1791535;79;26324;-47
2022/06/16 06:19:52;;;;;;;4.30;1.60;;;;;;;;;;1795892;78;27463;-44
2022/06/16 06:22:23;;;;;;;2.85;1.70;;;;;;;;;;1807512;78;26325;-48
2022/06/16 06:24:50;;;;;;;5.25;1.67;;;;;;;;;;1807350;78;26371;-46
2022/06/16 06:27:19;;;;;;;2.27;1.52;;;;;;;;;;1800575;78;26280;-45
2022/06/16 06:29:47;;;;;;;1.50;1.50;;;;;;;;;;1806694;78;26272;-46
2022/06/16 06:32:15;;;;;;;4.00;1.80;;;;;;;;;;1803871;78;26854;-51
2022/06/16 06:34:42;;;;;;;4.35;1.80;;;;;;;;;;1797825;78;26350;-45
2022/06/16 06:37:11;;;;;;;1.65;1.55;;;;;;;;;;1803780;78;26213;-46
2022/06/16 06:39:39;;;;;;;3.22;1.72;;;;;;;;;;1808883;78;26291;-58
2022/06/16 06:42:06;;;;;;;1.80;1.70;;;;;;;;;;1809684;77;26397;-56
2022/06/16 06:44:34;;;;;;;1.60;1.50;;;;;;;;;;1805614;77;26311;-55
2022/06/16 06:47:02;;;;;;;1.50;1.50;;;;;;;;;;1802223;77;26286;-53
2022/06/16 06:49:29;;;;;;;1.42;1.40;;;;;;;;;;1803825;77;26289;-54
2022/06/16 06:51:56;;;;;;;1.80;1.70;;;;;;;;;;1804488;78;26722;-55
2022/06/16 06:54:24;;;;;;;3.90;1.60;;;;;;;;;;1806480;78;27286;-50
2022/06/16 06:56:51;;;;;;;1.45;1.45;;;;;;;;;;1808533;77;26275;-49
2022/06/16 06:59:20;;;;;;;1.57;1.57;;;;;;;;;;1803299;78;26292;-47
2022/06/16 07:01:48;;;;;;;2.50;1.80;;;;;;;;;;1807306;78;27470;-51
2022/06/16 07:04:16;;;;;;;3.60;1.98;;;;;;;;;;1809940;78;26299;-52
2022/06/16 07:06:44;;;;;;;1.70;1.60;;;;;;;;;;1812039;78;26786;-50
2022/06/16 07:09:12;;;;;;;1.60;1.50;;;;;;;;;;1813584;78;26297;-48
2022/06/16 07:11:41;;;;;;;2.35;1.60;;;;;;;;;;1802877;78;26272;-59
2022/06/16 07:14:09;;;;;;;2.05;1.52;;;;;;;;;;1791642;78;26331;-55
2022/06/16 07:16:36;;;;;;;3.22;1.32;;;;;;;;;;1804660;78;26229;-55
2022/06/16 07:19:04;;;;;;;2.25;1.60;;;;;;;;;;1803004;78;26312;-54
2022/06/16 07:21:31;;;;;;;1.60;1.50;;;;;;;;;;1806030;78;26739;-52
2022/06/16 07:23:59;;;;;;;1.45;1.45;;;;;;;;;;1813388;78;26799;-54
2022/06/16 07:26:26;;;;;;;1.60;1.50;;;;;;;;;;1790888;78;26287;-56
2022/06/16 07:28:55;;;;;;;2.10;1.57;;;;;;;;;;1802101;78;26271;-53
2022/06/16 07:31:22;;;;;;;1.52;1.42;;;;;;;;;;1789938;78;26357;-54
2022/06/16 07:33:50;;;;;;;1.30;1.30;;;;;;;;;;1808155;78;26701;-57
2022/06/16 07:36:17;;;;;;;1.37;1.30;;;;;;;;;;1812085;78;27267;-48
2022/06/16 07:38:46;;;;;;;1.37;1.37;;;;;;;;;;1813560;78;26349;-50
2022/06/16 07:41:32;;;;;;;1.30;1.30;;;;;;;;;;1815659;77;26349;-47
2022/06/16 07:43:59;;;;;;;1.30;1.30;;;;;;;;;;1813385;78;26814;-52
2022/06/16 07:46:27;;;;;;;1.72;1.40;;;;;;;;;;1815694;77;26287;-51
2022/06/16 07:48:54;;;;;;;1.22;1.22;;;;;;;;;;1821713;77;26279;-54
2022/06/16 07:51:21;;;;;;;1.37;1.37;;;;;;;;;;1806719;79;26640;-52
2022/06/16 07:53:49;;;;;;;1.95;1.45;;;;;;;;;;1811130;78;26285;-52
2022/06/16 07:56:17;;;;;;;2.85;1.30;;;;;;;;;;1813530;78;26221;-48
2022/06/16 07:58:44;;;;;;;1.30;1.30;;;;;;;;;;1805971;78;26746;-50
2022/06/16 08:01:13;;;;;;;1.62;1.50;;;;;;;;;;1798139;75;26327;-52
2022/06/16 08:03:41;;;;;;;1.87;1.77;;;;;;;;;;1814944;79;26362;-47
2022/06/16 08:06:09;;;;;;;4.03;1.50;;;;;;;;;;1813748;77;26708;-47
2022/06/16 08:08:37;;;;;;;1.42;1.37;;;;;;;;;;1811629;77;26771;-49
2022/06/16 08:11:04;;;;;;;1.47;1.32;;;;;;;;;;1816220;77;26276;-49
2022/06/16 08:13:32;;;;;;;5.72;1.57;;;;;;;;;;1832199;78;26347;-52
2022/06/16 08:15:59;;;;;;;4.25;1.42;;;;;;;;;;1822658;77;26308;-54
2022/06/16 08:18:26;;;;;;;2.72;1.37;;;;;;;;;;1816940;78;26298;-52
2022/06/16 08:20:54;;;;;;;4.10;1.50;;;;;;;;;;1805036;79;26743;-53
2022/06/16 08:23:22;;;;;;;16.87;2.08;;;;;;;;;;1811031;78;26295;-51
2022/06/16 08:25:50;;;;;;;14.15;1.77;;;;;;;;;;1810717;77;26632;-49
2022/06/16 08:28:18;;;;;;;10.75;1.50;;;;;;;;;;1813936;78;26705;-53
2022/06/16 08:30:46;;;;;;;8.98;1.50;;;;;;;;;;1812581;78;26301;-54
2022/06/16 08:33:17;;;;;;;2.75;1.30;;;;;;;;;;1807052;77;26272;-50
2022/06/16 08:35:46;;;;;;;6.47;1.50;;;;;;;;;;1809527;78;26265;-55
2022/06/16 08:38:14;;;;;;;1.57;1.40;;;;;;;;;;1813112;78;26225;-58
2022/06/16 08:40:43;;;;;;;3.65;1.35;;;;;;;;;;1805484;77;26429;-51
2022/06/16 08:43:17;;;;;;;1.27;1.20;;;;;;;;;;1808917;79;26684;-49
2022/06/16 08:45:49;;;;;;;3.15;1.52;;;;;;;;;;1799748;77;26284;-49
2022/06/16 08:48:36;;;;;;;3.80;1.30;;;;;;;;;;1806923;78;26324;-50
2022/06/16 08:51:08;;;;;;;3.17;1.40;;;;;;;;;;1810099;78;26279;-53
2022/06/16 08:53:40;;;;;;;3.70;1.27;;;;;;;;;;1798753;77;26310;-53
2022/06/16 08:56:09;;;;;;;3.30;1.22;;;;;;;;;;1800302;78;26284;-59
2022/06/16 08:58:44;;;;;;;1.50;1.40;;;;;;;;;;1800901;78;26263;-61
2022/06/16 09:01:16;;;;;;;2.12;1.30;;;;;;;;;;1799933;78;26326;-58
2022/06/16 09:03:47;;;;;;;3.00;1.10;;;;;;;;;;1803544;78;26392;-58
2022/06/16 09:06:16;;;;;;;2.52;1.10;;;;;;;;;;1803194;78;26788;-55
2022/06/16 09:08:45;;;;;;;2.08;1.20;;;;;;;;;;1805738;78;26813;-55
2022/06/16 09:11:17;;;;;;;4.35;1.30;;;;;;;;;;1811556;78;26731;-54
2022/06/16 09:13:45;;;;;;;4.50;1.40;;;;;;;;;;1805702;78;26280;-57
2022/06/16 09:16:31;;;;;;;2.80;1.45;;;;;;;;;;1803422;78;26275;-57
2022/06/16 09:19:03;;;;;;;2.12;1.20;;;;;;;;;;1800610;78;26334;-56
2022/06/16 09:21:38;;;;;;;2.60;1.30;;;;;;;;;;1790574;79;26798;-54
2022/06/16 09:24:07;;;;;;;2.70;1.32;;;;;;;;;;1807265;79;26786;-56
2022/06/16 09:26:36;;;;;;;3.60;1.40;;;;;;;;;;1811904;79;26291;-57
2022/06/16 09:29:05;;;;;;;2.95;1.32;;;;;;;;;;1809973;78;26334;-53
2022/06/16 09:31:51;;;;;;;1.85;1.40;;;;;;;;;;1813882;79;26284;-50
2022/06/16 09:34:26;;;;;;;2.35;1.60;;;;;;;;;;1797548;78;26304;-57
2022/06/16 09:36:56;;;;;;;1.80;1.40;;;;;;;;;;1809467;78;26323;-52
2022/06/16 09:39:25;;;;;;;1.92;1.60;;;;;;;;;;1800962;78;26241;-55
2022/06/16 09:44:46;;;;;;;2.25;1.50;;;;;;;;;;1796545;78;26764;-56
2022/06/16 09:47:15;;;;;;;2.02;1.70;;;;;;;;;;1788089;78;26277;-52
2022/06/16 09:49:56;;;;;;;4.25;2.00;;;;;;;;;;1806536;79;26286;-52
2022/06/16 09:52:37;;;;;;;5.47;1.92;;;;;;;;;;1777891;78;26375;-54
2022/06/16 09:55:22;;;;;;;5.55;2.10;;;;;;;;;;1806892;78;26217;-56
2022/06/16 09:57:51;;;;;;;2.72;2.05;;;;;;;;;;1805776;79;26313;-52
2022/06/16 10:00:20;;;;;;;4.72;2.20;;;;;;;;;;1798018;78;26282;-56
2022/06/16 10:02:49;;;;;;;4.33;2.10;;;;;;;;;;1803157;79;26602;-60
2022/06/16 10:05:17;;;;;;;4.33;2.20;;;;;;;;;;1803022;78;26227;-51
2022/06/16 10:07:53;;;;;;;3.25;2.00;;;;;;;;;;1791736;78;26316;-51
2022/06/16 10:10:24;;;;;;;5.55;2.60;;;;;;;;;;1809713;76;26917;-52
2022/06/16 10:13:02;;;;;;;5.10;2.35;;;;;;;;;;1769284;80;26246;-53
2022/06/16 10:15:34;;;;;;;2.02;1.82;;;;;;;;;;1768404;79;26841;-50
2022/06/16 10:18:01;;;;;;;3.70;1.85;;;;;;;;;;1771413;80;26829;-55
2022/06/16 10:20:30;;;;;;;3.45;1.75;;;;;;;;;;1769520;80;26300;-54
2022/06/16 10:23:04;;;;;;;2.27;1.75;;;;;;;;;;1773481;79;26611;-53
2022/06/16 10:25:39;;;;;;;3.47;1.55;;;;;;;;;;1765706;80;26483;-55
2022/06/16 10:28:27;;;;;;;2.22;1.57;;;;;;;;;;1777193;80;26722;-51
2022/06/16 10:30:53;;;;;;;4.28;1.40;;;;;;;;;;1768025;79;26383;-55
2022/06/16 10:33:25;;;;;;;4.30;1.50;;;;;;;;;;1763257;80;26763;-54
2022/06/16 10:35:54;;;;;;;4.25;1.30;;;;;;;;;;1749760;79;26325;-56
2022/06/16 10:38:40;;;;;;;1.37;1.27;;;;;;;;;;1778612;80;26347;-55
2022/06/16 10:41:09;;;;;;;2.45;1.40;;;;;;;;;;1770114;79;26300;-56
2022/06/16 10:43:38;;;;;;;1.47;1.30;;;;;;;;;;1763665;79;26370;-56
2022/06/16 10:46:10;;;;;;;3.05;1.30;;;;;;;;;;1767535;79;26299;-52
2022/06/16 10:48:38;;;;;;;2.35;1.10;;;;;;;;;;1765256;80;26324;-55
2022/06/16 10:51:12;;;;;;;1.10;1.00;;;;;;;;;;1769304;79;26430;-48
2022/06/16 10:53:42;;;;;;;2.35;1.10;;;;;;;;;;1750976;80;26758;-57
2022/06/16 10:56:18;;;;;;;3.25;1.00;;;;;;;;;;1756579;80;26244;-59
2022/06/16 10:58:50;;;;;;;1.12;1.02;;;;;;;;;;1752481;80;26325;-54
2022/06/16 11:01:19;;;;;;;1.87;1.00;;;;;;;;;;1756028;80;26299;-54
2022/06/16 11:03:56;;;;;;;1.10;1.00;;;;;;;;;;1755672;80;26288;-53
2022/06/16 11:06:24;;;;;;;2.65;0.80;;;;;;;;;;1766249;79;27372;-53
2022/06/16 11:08:53;;;;;;;1.10;1.00;;;;;;;;;;1769720;80;26287;-59
2022/06/16 11:11:21;;;;;;;0.90;0.90;;;;;;;;;;1763331;80;26332;-58
2022/06/16 11:13:50;;;;;;;2.15;1.00;;;;;;;;;;1758519;80;26389;-59
2022/06/16 11:16:19;;;;;;;0.93;0.80;;;;;;;;;;1759130;81;26381;-59
2022/06/16 11:18:47;;;;;;;0.88;0.88;;;;;;;;;;1760602;80;26288;-58
2022/06/16 11:21:16;;;;;;;8.08;1.77;;;;;;;;;;1764045;80;26292;-56
2022/06/16 11:23:45;;;;;;;0.50;0.50;;;;;;;;;;1763643;79;26347;-58
2022/06/16 11:26:16;;;;;;;0.65;0.65;;;;;;;;;;1764192;80;26342;-55
2022/06/16 11:28:45;;;;;;;0.68;0.68;;;;;;;;;;1762819;79;26350;-57
2022/06/16 11:31:17;;;;;;;3.87;0.70;;;;;;;;;;1761577;80;26300;-56
2022/06/16 11:36:49;;;;;;;0.75;0.50;;;;;;;;;;1762451;80;26362;-58
2022/06/16 11:39:30;;;;;;;0.50;0.50;;;;;;;;;;1760385;80;26292;-55
2022/06/16 11:41:59;;;;;;;0.50;0.50;;;;;;;;;;1759780;80;26299;-57
2022/06/16 11:44:30;;;;;;;1.22;0.57;;;;;;;;;;1764284;80;26382;-56
2022/06/16 11:46:59;;;;;;;1.05;0.50;;;;;;;;;;1760236;80;26300;-57
2022/06/16 11:49:44;;;;;;;2.17;0.57;;;;;;;;;;1769463;79;26240;-57
2022/06/16 11:52:28;;;;;;;0.62;0.60;;;;;;;;;;1768950;80;26835;-59
2022/06/16 11:55:06;;;;;;;0.95;0.50;;;;;;;;;;1763201;80;26760;-57
2022/06/16 11:57:35;;;;;;;0.50;0.50;;;;;;;;;;1758727;80;26287;-57
2022/06/16 12:00:13;;;;;;;0.50;0.50;;;;;;;;;;1764148;80;26281;-56
2022/06/16 12:02:45;;;;;;;0.50;0.50;;;;;;;;;;1766574;80;26304;-57
2022/06/16 12:05:13;;;;;;;0.60;0.60;;;;;;;;;;1763009;80;26359;-57
2022/06/16 12:07:52;;;;;;;2.37;0.40;;;;;;;;;;1761417;80;26277;-59
2022/06/16 12:10:24;;;;;;;1.55;0.50;;;;;;;;;;1760250;79;26323;-54
2022/06/16 12:12:52;;;;;;;0.40;0.40;;;;;;;;;;1769797;79;26374;-52
2022/06/16 12:15:30;;;;;;;0.47;0.47;;;;;;;;;;1771291;79;26228;-57
2022/06/16 12:18:16;;;;;;;2.25;0.40;;;;;;;;;;1761674;79;26631;-54
2022/06/16 12:21:01;;;;;;;0.45;0.45;;;;;;;;;;1762401;80;26354;-57
2022/06/16 12:23:30;;;;;;;0.60;0.37;;;;;;;;;;1772279;79;26712;-56
2022/06/16 12:26:01;;;;;;;0.85;0.50;;;;;;;;;;1751274;80;27734;-55
2022/06/16 12:28:33;;;;;;;1.92;0.60;;;;;;;;;;1764287;79;26288;-58
2022/06/16 12:31:07;;;;;;;0.50;0.50;;;;;;;;;;1765266;79;26289;-58
2022/06/16 12:33:36;;;;;;;1.65;0.50;;;;;;;;;;1760031;79;26241;-57
2022/06/16 12:36:11;;;;;;;0.50;0.50;;;;;;;;;;1763927;79;26235;-59
2022/06/16 12:38:52;;;;;;;0.35;0.35;;;;;;;;;;1765449;79;26469;-57
2022/06/16 12:41:21;;;;;;;1.07;0.35;;;;;;;;;;1765080;79;26288;-51
2022/06/16 12:43:50;;;;;;;0.65;0.30;;;;;;;;;;1763458;79;26304;-56
2022/06/16 12:46:19;;;;;;;0.75;0.40;;;;;;;;;;1761768;79;26370;-60
2022/06/16 12:48:53;;;;;;;0.50;0.50;;;;;;;;;;1749203;80;26296;-56
2022/06/16 12:51:22;;;;;;;0.37;0.37;;;;;;;;;;1760372;79;26296;-58
2022/06/16 12:53:53;;;;;;;0.53;0.50;;;;;;;;;;1770694;79;26372;-57
2022/06/16 12:56:22;;;;;;;0.50;0.50;;;;;;;;;;1765412;79;26268;-52
2022/06/16 12:58:51;;;;;;;0.47;0.40;;;;;;;;;;1765456;79;26312;-52
2022/06/16 13:01:18;;;;;;;1.60;0.42;;;;;;;;;;1769201;79;26252;-56
2022/06/16 13:03:50;;;;;;;1.67;0.55;;;;;;;;;;1763822;79;26296;-58
2022/06/16 13:06:19;;;;;;;0.45;0.45;;;;;;;;;;1763434;79;26280;-59
2022/06/16 13:08:48;;;;;;;1.40;0.50;;;;;;;;;;1755781;79;26275;-54
2022/06/16 13:11:16;;;;;;;0.50;0.50;;;;;;;;;;1769165;79;26323;-53
2022/06/16 13:13:45;;;;;;;0.55;0.55;;;;;;;;;;1769276;79;26709;-55
2022/06/16 13:16:14;;;;;;;0.50;0.50;;;;;;;;;;1765333;79;26314;-54
2022/06/16 13:18:43;;;;;;;0.60;0.60;;;;;;;;;;1768675;79;26295;-55
2022/06/16 13:21:11;;;;;;;0.72;0.50;;;;;;;;;;1755835;80;26360;-59
2022/06/16 13:23:40;;;;;;;0.55;0.55;;;;;;;;;;1756299;79;26841;-56
2022/06/16 13:26:08;;;;;;;0.88;0.60;;;;;;;;;;1754190;79;26277;-57
2022/06/16 13:28:37;;;;;;;0.53;0.50;;;;;;;;;;1767350;80;26297;-49
2022/06/16 13:31:13;;;;;;;0.70;0.70;;;;;;;;;;1768365;79;26286;-50
2022/06/16 13:33:57;;;;;;;0.50;0.50;;;;;;;;;;1756878;79;26366;-54
2022/06/16 13:36:29;;;;;;;0.95;0.70;;;;;;;;;;1745627;80;26301;-48
2022/06/16 13:38:57;;;;;;;0.88;0.60;;;;;;;;;;1770828;79;26451;-50
2022/06/16 13:41:41;;;;;;;1.32;0.70;;;;;;;;;;1769113;79;26318;-52
2022/06/16 13:44:10;;;;;;;0.70;0.70;;;;;;;;;;1769439;79;26300;-52
2022/06/16 13:46:51;;;;;;;3.60;0.70;;;;;;;;;;1753987;79;26899;-51
2022/06/16 13:49:29;;;;;;;0.65;0.65;;;;;;;;;;1775875;79;26371;-53
2022/06/16 13:52:10;;;;;;;0.68;0.68;;;;;;;;;;1750469;79;26310;-57
2022/06/16 13:54:38;;;;;;;0.60;0.60;;;;;;;;;;1759368;79;26278;-52
2022/06/16 13:57:15;;;;;;;1.12;0.80;;;;;;;;;;1760353;79;26293;-57
2022/06/16 13:59:43;;;;;;;0.60;0.60;;;;;;;;;;1762525;79;26307;-56
2022/06/16 14:02:12;;;;;;;0.60;0.60;;;;;;;;;;1748064;80;26237;-56
2022/06/16 14:04:44;;;;;;;0.72;0.72;;;;;;;;;;1747061;80;26300;-56
2022/06/16 14:07:15;;;;;;;2.27;0.70;;;;;;;;;;1747521;80;26279;-55
2022/06/16 14:09:50;;;;;;;0.88;0.80;;;;;;;;;;1757630;79;26957;-52
2022/06/16 14:12:19;;;;;;;1.98;0.70;;;;;;;;;;1775551;78;26745;-48
2022/06/16 14:14:51;;;;;;;1.02;0.50;;;;;;;;;;1763302;80;26805;-52
2022/06/16 14:17:33;;;;;;;1.00;1.00;;;;;;;;;;1764990;80;26330;-50
2022/06/16 14:20:01;;;;;;;1.60;0.75;;;;;;;;;;1749771;79;26240;-57
2022/06/16 14:22:30;;;;;;;2.02;0.75;;;;;;;;;;1763223;79;26238;-56
2022/06/16 14:25:05;;;;;;;0.60;0.60;;;;;;;;;;1757664;79;26267;-59
2022/06/16 14:27:32;;;;;;;0.70;0.70;;;;;;;;;;1764682;79;26303;-59
2022/06/16 14:30:00;;;;;;;0.80;0.80;;;;;;;;;;1766576;80;26236;-56
2022/06/16 14:32:32;;;;;;;2.87;0.75;;;;;;;;;;1755872;80;26267;-54
2022/06/16 14:35:04;;;;;;;1.90;0.70;;;;;;;;;;1756096;80;26259;-56
2022/06/16 14:37:32;;;;;;;1.95;0.90;;;;;;;;;;1767369;79;26180;-57
2022/06/16 14:40:04;;;;;;;2.95;0.80;;;;;;;;;;1770299;79;26326;-54
2022/06/16 14:42:35;;;;;;;3.65;0.88;;;;;;;;;;1766213;79;26319;-55
2022/06/16 14:45:21;;;;;;;2.25;0.88;;;;;;;;;;1767721;80;27238;-56
2022/06/16 14:47:51;;;;;;;3.30;0.70;;;;;;;;;;1766803;79;26472;-47
2022/06/16 14:50:29;;;;;;;2.70;0.68;;;;;;;;;;1770414;79;26340;-55
2022/06/16 14:53:05;;;;;;;3.40;0.90;;;;;;;;;;1752292;79;26240;-51
2022/06/16 14:55:31;;;;;;;1.35;1.00;;;;;;;;;;1766947;79;26304;-59
2022/06/16 14:57:59;;;;;;;2.37;0.78;;;;;;;;;;1767154;79;27464;-48
2022/06/16 15:00:28;;;;;;;3.12;0.80;;;;;;;;;;1755252;79;26252;-48
2022/06/16 15:02:57;;;;;;;0.88;0.70;;;;;;;;;;1744374;79;26265;-52
2022/06/16 15:05:25;;;;;;;1.95;0.60;;;;;;;;;;1759353;79;26361;-52
2022/06/16 15:07:53;;;;;;;1.00;0.90;;;;;;;;;;1752963;80;26293;-51
2022/06/16 15:10:22;;;;;;;1.05;0.70;;;;;;;;;;1768294;79;26184;-57
2022/06/16 15:12:50;;;;;;;1.50;0.88;;;;;;;;;;1745003;79;26815;-55
2022/06/16 15:15:22;;;;;;;6.62;1.60;;;;;;;;;;1757400;80;26237;-50
2022/06/16 15:20:39;;;;;;;2.75;1.07;;;;;;;;;;1766300;80;26296;-59
2022/06/16 15:23:07;;;;;;;2.55;1.30;;;;;;;;;;1772209;79;26315;-54